sensor_id;sensor_type;location;lat;lon;timestamp;P1;durP1;ratioP1;P2;durP2;ratioP2
8038;SDS011;4062;49.844;8.120;2023-05-07T00:00:07;0.40;;;0.30;;
8038;SDS011;4062;49.844;8.120;2023-05-07T00:02:11;0.50;;;0.40;;
8038;SDS011;4062;49.844;8.120;2023-05-07T00:04:13;0.70;;;0.40;;
8038;SDS011;4062;49.844;8.120;2023-05-07T00:06:14;0.50;;;0.30;;
8038;SDS011;4062;49.844;8.120;2023-05-07T00:08:16;0.40;;;0.30;;
8038;SDS011;4062;49.844;8.120;2023-05-07T00:10:17;0.43;;;0.30;;
8038;SDS011;4062;49.844;8.120;2023-05-07T00:12:19;0.50;;;0.30;;
8038;SDS011;4062;49.844;8.120;2023-05-07T00:14:20;0.50;;;0.30;;
8038;SDS011;4062;49.844;8.120;2023-05-07T00:16:22;0.50;;;0.30;;
8038;SDS011;4062;49.844;8.120;2023-05-07T00:18:23;0.40;;;0.30;;
8038;SDS011;4062;49.844;8.120;2023-05-07T00:20:25;0.40;;;0.30;;
8038;SDS011;4062;49.844;8.120;2023-05-07T00:22:30;0.40;;;0.30;;
8038;SDS011;4062;49.844;8.120;2023-05-07T00:24:32;0.40;;;0.30;;
8038;SDS011;4062;49.844;8.120;2023-05-07T00:26:34;0.50;;;0.30;;
8038;SDS011;4062;49.844;8.120;2023-05-07T00:28:35;0.43;;;0.30;;
8038;SDS011;4062;49.844;8.120;2023-05-07T00:30:36;0.40;;;0.30;;
8038;SDS011;4062;49.844;8.120;2023-05-07T00:32:38;0.40;;;0.30;;
8038;SDS011;4062;49.844;8.120;2023-05-07T00:34:39;0.40;;;0.30;;
8038;SDS011;4062;49.844;8.120;2023-05-07T00:36:41;0.40;;;0.30;;
8038;SDS011;4062;49.844;8.120;2023-05-07T00:38:42;0.40;;;0.30;;
8038;SDS011;4062;49.844;8.120;2023-05-07T00:40:43;0.40;;;0.30;;
8038;SDS011;4062;49.844;8.120;2023-05-07T00:42:45;0.60;;;0.50;;
8038;SDS011;4062;49.844;8.120;2023-05-07T00:44:47;0.50;;;0.30;;
8038;SDS011;4062;49.844;8.120;2023-05-07T00:46:48;0.70;;;0.30;;
8038;SDS011;4062;49.844;8.120;2023-05-07T00:48:50;0.50;;;0.50;;
8038;SDS011;4062;49.844;8.120;2023-05-07T00:50:52;0.50;;;0.30;;
8038;SDS011;4062;49.844;8.120;2023-05-07T00:52:54;0.40;;;0.30;;
8038;SDS011;4062;49.844;8.120;2023-05-07T00:54:56;0.40;;;0.37;;
8038;SDS011;4062;49.844;8.120;2023-05-07T00:56:57;0.70;;;0.40;;
8038;SDS011;4062;49.844;8.120;2023-05-07T00:59:00;0.50;;;0.33;;
8038;SDS011;4062;49.844;8.120;2023-05-07T01:01:05;0.40;;;0.30;;
8038;SDS011;4062;49.844;8.120;2023-05-07T01:03:07;0.40;;;0.30;;
8038;SDS011;4062;49.844;8.120;2023-05-07T01:05:10;0.40;;;0.30;;
8038;SDS011;4062;49.844;8.120;2023-05-07T01:07:13;0.50;;;0.40;;
8038;SDS011;4062;49.844;8.120;2023-05-07T01:09:15;0.40;;;0.30;;
8038;SDS011;4062;49.844;8.120;2023-05-07T01:11:17;0.40;;;0.30;;
8038;SDS011;4062;49.844;8.120;2023-05-07T01:13:20;0.50;;;0.30;;
8038;SDS011;4062;49.844;8.120;2023-05-07T01:15:22;0.40;;;0.27;;
8038;SDS011;4062;49.844;8.120;2023-05-07T01:17:24;0.50;;;0.30;;
8038;SDS011;4062;49.844;8.120;2023-05-07T01:19:26;0.40;;;0.30;;
8038;SDS011;4062;49.844;8.120;2023-05-07T01:21:29;0.50;;;0.33;;
8038;SDS011;4062;49.844;8.120;2023-05-07T01:23:36;0.57;;;0.40;;
8038;SDS011;4062;49.844;8.120;2023-05-07T01:25:38;0.40;;;0.30;;
8038;SDS011;4062;49.844;8.120;2023-05-07T01:27:40;0.50;;;0.40;;
8038;SDS011;4062;49.844;8.120;2023-05-07T01:29:45;0.50;;;0.30;;
8038;SDS011;4062;49.844;8.120;2023-05-07T01:31:46;0.40;;;0.30;;
8038;SDS011;4062;49.844;8.120;2023-05-07T01:33:50;0.77;;;0.37;;
8038;SDS011;4062;49.844;8.120;2023-05-07T01:35:53;0.50;;;0.30;;
8038;SDS011;4062;49.844;8.120;2023-05-07T01:37:55;0.40;;;0.30;;
8038;SDS011;4062;49.844;8.120;2023-05-07T01:39:57;0.50;;;0.47;;
8038;SDS011;4062;49.844;8.120;2023-05-07T01:41:59;0.57;;;0.30;;
8038;SDS011;4062;49.844;8.120;2023-05-07T01:44:02;0.50;;;0.30;;
8038;SDS011;4062;49.844;8.120;2023-05-07T01:46:05;0.50;;;0.40;;
8038;SDS011;4062;49.844;8.120;2023-05-07T01:48:11;0.47;;;0.30;;
8038;SDS011;4062;49.844;8.120;2023-05-07T01:50:14;0.50;;;0.30;;
8038;SDS011;4062;49.844;8.120;2023-05-07T01:52:18;0.50;;;0.30;;
8038;SDS011;4062;49.844;8.120;2023-05-07T01:54:21;0.40;;;0.30;;
8038;SDS011;4062;49.844;8.120;2023-05-07T01:56:28;0.50;;;0.37;;
8038;SDS011;4062;49.844;8.120;2023-05-07T01:58:30;0.40;;;0.30;;
8038;SDS011;4062;49.844;8.120;2023-05-07T02:00:31;0.40;;;0.30;;
8038;SDS011;4062;49.844;8.120;2023-05-07T02:02:33;0.50;;;0.30;;
8038;SDS011;4062;49.844;8.120;2023-05-07T02:04:34;0.40;;;0.30;;
8038;SDS011;4062;49.844;8.120;2023-05-07T02:06:36;0.50;;;0.37;;
8038;SDS011;4062;49.844;8.120;2023-05-07T02:08:39;0.40;;;0.30;;
8038;SDS011;4062;49.844;8.120;2023-05-07T02:10:41;0.50;;;0.30;;
8038;SDS011;4062;49.844;8.120;2023-05-07T02:12:44;0.40;;;0.30;;
8038;SDS011;4062;49.844;8.120;2023-05-07T02:14:45;0.40;;;0.30;;
8038;SDS011;4062;49.844;8.120;2023-05-07T02:16:46;0.50;;;0.37;;
8038;SDS011;4062;49.844;8.120;2023-05-07T02:18:49;0.50;;;0.30;;
8038;SDS011;4062;49.844;8.120;2023-05-07T02:20:51;0.40;;;0.30;;
8038;SDS011;4062;49.844;8.120;2023-05-07T02:22:52;0.40;;;0.30;;
8038;SDS011;4062;49.844;8.120;2023-05-07T02:24:53;0.40;;;0.30;;
8038;SDS011;4062;49.844;8.120;2023-05-07T02:26:55;0.50;;;0.33;;
8038;SDS011;4062;49.844;8.120;2023-05-07T02:28:57;0.40;;;0.30;;
8038;SDS011;4062;49.844;8.120;2023-05-07T02:30:58;0.50;;;0.40;;
8038;SDS011;4062;49.844;8.120;2023-05-07T02:33:01;0.40;;;0.30;;
8038;SDS011;4062;49.844;8.120;2023-05-07T02:35:02;0.40;;;0.30;;
8038;SDS011;4062;49.844;8.120;2023-05-07T02:37:05;0.40;;;0.30;;
8038;SDS011;4062;49.844;8.120;2023-05-07T02:39:06;0.40;;;0.30;;
8038;SDS011;4062;49.844;8.120;2023-05-07T02:41:08;0.40;;;0.30;;
8038;SDS011;4062;49.844;8.120;2023-05-07T02:43:09;0.50;;;0.30;;
8038;SDS011;4062;49.844;8.120;2023-05-07T02:45:11;0.40;;;0.30;;
8038;SDS011;4062;49.844;8.120;2023-05-07T02:47:14;0.40;;;0.30;;
8038;SDS011;4062;49.844;8.120;2023-05-07T02:49:17;0.60;;;0.30;;
8038;SDS011;4062;49.844;8.120;2023-05-07T02:51:20;0.40;;;0.30;;
8038;SDS011;4062;49.844;8.120;2023-05-07T02:53:22;0.40;;;0.30;;
8038;SDS011;4062;49.844;8.120;2023-05-07T02:55:26;0.40;;;0.30;;
8038;SDS011;4062;49.844;8.120;2023-05-07T02:57:27;0.40;;;0.30;;
8038;SDS011;4062;49.844;8.120;2023-05-07T02:59:31;0.40;;;0.30;;
8038;SDS011;4062;49.844;8.120;2023-05-07T03:01:33;0.40;;;0.30;;
8038;SDS011;4062;49.844;8.120;2023-05-07T03:03:40;0.40;;;0.30;;
8038;SDS011;4062;49.844;8.120;2023-05-07T03:05:42;0.40;;;0.30;;
8038;SDS011;4062;49.844;8.120;2023-05-07T03:07:43;0.40;;;0.30;;
8038;SDS011;4062;49.844;8.120;2023-05-07T03:09:47;0.50;;;0.30;;
8038;SDS011;4062;49.844;8.120;2023-05-07T03:11:48;0.40;;;0.30;;
8038;SDS011;4062;49.844;8.120;2023-05-07T03:13:50;0.40;;;0.30;;
8038;SDS011;4062;49.844;8.120;2023-05-07T03:15:53;0.40;;;0.30;;
8038;SDS011;4062;49.844;8.120;2023-05-07T03:17:55;0.40;;;0.30;;
8038;SDS011;4062;49.844;8.120;2023-05-07T03:19:56;0.43;;;0.30;;
8038;SDS011;4062;49.844;8.120;2023-05-07T03:21:58;0.50;;;0.50;;
8038;SDS011;4062;49.844;8.120;2023-05-07T03:24:00;0.40;;;0.30;;
8038;SDS011;4062;49.844;8.120;2023-05-07T03:26:02;0.40;;;0.30;;
8038;SDS011;4062;49.844;8.120;2023-05-07T03:28:03;0.40;;;0.30;;
8038;SDS011;4062;49.844;8.120;2023-05-07T03:30:13;0.50;;;0.30;;
8038;SDS011;4062;49.844;8.120;2023-05-07T03:32:14;0.40;;;0.30;;
8038;SDS011;4062;49.844;8.120;2023-05-07T03:34:16;0.40;;;0.30;;
8038;SDS011;4062;49.844;8.120;2023-05-07T03:36:22;0.40;;;0.30;;
8038;SDS011;4062;49.844;8.120;2023-05-07T03:38:24;0.40;;;0.30;;
8038;SDS011;4062;49.844;8.120;2023-05-07T03:40:25;0.77;;;0.30;;
8038;SDS011;4062;49.844;8.120;2023-05-07T03:42:28;0.40;;;0.30;;
8038;SDS011;4062;49.844;8.120;2023-05-07T03:44:30;0.50;;;0.40;;
8038;SDS011;4062;49.844;8.120;2023-05-07T03:46:33;0.40;;;0.30;;
8038;SDS011;4062;49.844;8.120;2023-05-07T03:48:35;0.40;;;0.30;;
8038;SDS011;4062;49.844;8.120;2023-05-07T03:50:37;0.40;;;0.20;;
8038;SDS011;4062;49.844;8.120;2023-05-07T03:52:40;0.40;;;0.30;;
8038;SDS011;4062;49.844;8.120;2023-05-07T03:54:43;0.50;;;0.40;;
8038;SDS011;4062;49.844;8.120;2023-05-07T03:56:49;0.50;;;0.30;;
8038;SDS011;4062;49.844;8.120;2023-05-07T03:58:50;0.40;;;0.27;;
8038;SDS011;4062;49.844;8.120;2023-05-07T04:00:52;0.40;;;0.30;;
8038;SDS011;4062;49.844;8.120;2023-05-07T04:03:00;0.40;;;0.30;;
8038;SDS011;4062;49.844;8.120;2023-05-07T04:05:04;0.43;;;0.33;;
8038;SDS011;4062;49.844;8.120;2023-05-07T04:07:06;0.87;;;0.30;;
8038;SDS011;4062;49.844;8.120;2023-05-07T04:09:12;0.50;;;0.30;;
8038;SDS011;4062;49.844;8.120;2023-05-07T04:11:14;0.40;;;0.30;;
8038;SDS011;4062;49.844;8.120;2023-05-07T04:13:15;0.40;;;0.30;;
8038;SDS011;4062;49.844;8.120;2023-05-07T04:15:17;0.40;;;0.30;;
8038;SDS011;4062;49.844;8.120;2023-05-07T04:17:19;0.40;;;0.30;;
8038;SDS011;4062;49.844;8.120;2023-05-07T04:19:20;0.40;;;0.30;;
8038;SDS011;4062;49.844;8.120;2023-05-07T04:21:24;0.40;;;0.30;;
8038;SDS011;4062;49.844;8.120;2023-05-07T04:23:26;0.50;;;0.33;;
8038;SDS011;4062;49.844;8.120;2023-05-07T04:25:28;0.40;;;0.30;;
8038;SDS011;4062;49.844;8.120;2023-05-07T04:27:37;0.40;;;0.33;;
8038;SDS011;4062;49.844;8.120;2023-05-07T04:29:39;0.63;;;0.40;;
8038;SDS011;4062;49.844;8.120;2023-05-07T04:31:44;0.40;;;0.30;;
8038;SDS011;4062;49.844;8.120;2023-05-07T04:33:45;0.40;;;0.30;;
8038;SDS011;4062;49.844;8.120;2023-05-07T04:35:48;0.40;;;0.30;;
8038;SDS011;4062;49.844;8.120;2023-05-07T04:37:50;0.40;;;0.30;;
8038;SDS011;4062;49.844;8.120;2023-05-07T04:39:51;0.50;;;0.30;;
8038;SDS011;4062;49.844;8.120;2023-05-07T04:41:53;0.40;;;0.30;;
8038;SDS011;4062;49.844;8.120;2023-05-07T04:43:54;0.40;;;0.30;;
8038;SDS011;4062;49.844;8.120;2023-05-07T04:45:59;0.40;;;0.30;;
8038;SDS011;4062;49.844;8.120;2023-05-07T04:48:01;0.60;;;0.30;;
8038;SDS011;4062;49.844;8.120;2023-05-07T04:50:06;0.40;;;0.30;;
8038;SDS011;4062;49.844;8.120;2023-05-07T04:52:09;0.50;;;0.30;;
8038;SDS011;4062;49.844;8.120;2023-05-07T04:54:10;0.40;;;0.20;;
8038;SDS011;4062;49.844;8.120;2023-05-07T04:56:12;0.40;;;0.30;;
8038;SDS011;4062;49.844;8.120;2023-05-07T04:58:16;0.40;;;0.30;;
8038;SDS011;4062;49.844;8.120;2023-05-07T05:00:20;0.40;;;0.30;;
8038;SDS011;4062;49.844;8.120;2023-05-07T05:02:23;0.40;;;0.30;;
8038;SDS011;4062;49.844;8.120;2023-05-07T05:04:25;0.40;;;0.30;;
8038;SDS011;4062;49.844;8.120;2023-05-07T05:06:27;0.50;;;0.37;;
8038;SDS011;4062;49.844;8.120;2023-05-07T05:08:29;0.40;;;0.30;;
8038;SDS011;4062;49.844;8.120;2023-05-07T05:10:32;0.40;;;0.27;;
8038;SDS011;4062;49.844;8.120;2023-05-07T05:12:33;0.40;;;0.30;;
8038;SDS011;4062;49.844;8.120;2023-05-07T05:14:35;0.50;;;0.30;;
8038;SDS011;4062;49.844;8.120;2023-05-07T05:16:37;0.40;;;0.30;;
8038;SDS011;4062;49.844;8.120;2023-05-07T05:18:38;0.40;;;0.30;;
8038;SDS011;4062;49.844;8.120;2023-05-07T05:20:41;0.50;;;0.30;;
8038;SDS011;4062;49.844;8.120;2023-05-07T05:22:42;0.40;;;0.30;;
8038;SDS011;4062;49.844;8.120;2023-05-07T05:24:46;0.50;;;0.30;;
8038;SDS011;4062;49.844;8.120;2023-05-07T05:26:47;0.50;;;0.30;;
8038;SDS011;4062;49.844;8.120;2023-05-07T05:28:48;0.50;;;0.30;;
8038;SDS011;4062;49.844;8.120;2023-05-07T05:30:52;0.50;;;0.30;;
8038;SDS011;4062;49.844;8.120;2023-05-07T05:32:55;0.40;;;0.30;;
8038;SDS011;4062;49.844;8.120;2023-05-07T05:34:56;0.40;;;0.30;;
8038;SDS011;4062;49.844;8.120;2023-05-07T05:36:58;0.50;;;0.30;;
8038;SDS011;4062;49.844;8.120;2023-05-07T05:39:00;0.40;;;0.30;;
8038;SDS011;4062;49.844;8.120;2023-05-07T05:41:02;0.40;;;0.30;;
8038;SDS011;4062;49.844;8.120;2023-05-07T05:43:05;0.40;;;0.30;;
8038;SDS011;4062;49.844;8.120;2023-05-07T05:45:09;0.40;;;0.30;;
8038;SDS011;4062;49.844;8.120;2023-05-07T05:47:10;0.40;;;0.30;;
8038;SDS011;4062;49.844;8.120;2023-05-07T05:49:12;0.50;;;0.40;;
8038;SDS011;4062;49.844;8.120;2023-05-07T05:51:14;0.40;;;0.30;;
8038;SDS011;4062;49.844;8.120;2023-05-07T05:53:15;0.40;;;0.30;;
8038;SDS011;4062;49.844;8.120;2023-05-07T05:55:17;0.40;;;0.30;;
8038;SDS011;4062;49.844;8.120;2023-05-07T05:57:19;0.40;;;0.30;;
8038;SDS011;4062;49.844;8.120;2023-05-07T05:59:21;0.40;;;0.30;;
8038;SDS011;4062;49.844;8.120;2023-05-07T06:01:22;0.40;;;0.30;;
8038;SDS011;4062;49.844;8.120;2023-05-07T06:03:25;0.40;;;0.30;;
8038;SDS011;4062;49.844;8.120;2023-05-07T06:05:28;0.50;;;0.30;;
8038;SDS011;4062;49.844;8.120;2023-05-07T06:07:31;0.40;;;0.30;;
8038;SDS011;4062;49.844;8.120;2023-05-07T06:09:32;0.40;;;0.30;;
8038;SDS011;4062;49.844;8.120;2023-05-07T06:11:33;0.40;;;0.30;;
8038;SDS011;4062;49.844;8.120;2023-05-07T06:13:35;0.40;;;0.30;;
8038;SDS011;4062;49.844;8.120;2023-05-07T06:15:36;0.40;;;0.30;;
8038;SDS011;4062;49.844;8.120;2023-05-07T06:17:42;0.40;;;0.30;;
8038;SDS011;4062;49.844;8.120;2023-05-07T06:19:44;0.47;;;0.30;;
8038;SDS011;4062;49.844;8.120;2023-05-07T06:21:47;0.40;;;0.30;;
8038;SDS011;4062;49.844;8.120;2023-05-07T06:23:49;0.40;;;0.30;;
8038;SDS011;4062;49.844;8.120;2023-05-07T06:25:52;0.40;;;0.30;;
8038;SDS011;4062;49.844;8.120;2023-05-07T06:27:57;0.50;;;0.30;;
8038;SDS011;4062;49.844;8.120;2023-05-07T06:30:00;0.40;;;0.30;;
8038;SDS011;4062;49.844;8.120;2023-05-07T06:32:06;0.47;;;0.30;;
8038;SDS011;4062;49.844;8.120;2023-05-07T06:34:08;0.40;;;0.30;;
8038;SDS011;4062;49.844;8.120;2023-05-07T06:36:12;0.40;;;0.30;;
8038;SDS011;4062;49.844;8.120;2023-05-07T06:38:13;0.50;;;0.30;;
8038;SDS011;4062;49.844;8.120;2023-05-07T06:40:17;0.50;;;0.40;;
8038;SDS011;4062;49.844;8.120;2023-05-07T06:42:21;0.40;;;0.30;;
8038;SDS011;4062;49.844;8.120;2023-05-07T06:44:24;0.40;;;0.30;;
8038;SDS011;4062;49.844;8.120;2023-05-07T06:46:38;0.47;;;0.30;;
8038;SDS011;4062;49.844;8.120;2023-05-07T06:48:41;0.40;;;0.30;;
8038;SDS011;4062;49.844;8.120;2023-05-07T06:50:42;7.80;;;0.40;;
8038;SDS011;4062;49.844;8.120;2023-05-07T06:52:45;0.50;;;0.40;;
8038;SDS011;4062;49.844;8.120;2023-05-07T06:54:46;2.33;;;0.37;;
8038;SDS011;4062;49.844;8.120;2023-05-07T06:59:30;0.50;;;0.30;;
8038;SDS011;4062;49.844;8.120;2023-05-07T07:01:34;0.50;;;0.30;;
8038;SDS011;4062;49.844;8.120;2023-05-07T07:03:36;0.40;;;0.30;;
8038;SDS011;4062;49.844;8.120;2023-05-07T07:05:40;0.60;;;0.40;;
8038;SDS011;4062;49.844;8.120;2023-05-07T07:07:45;0.80;;;0.33;;
8038;SDS011;4062;49.844;8.120;2023-05-07T07:09:52;0.50;;;0.40;;
8038;SDS011;4062;49.844;8.120;2023-05-07T07:11:56;0.47;;;0.37;;
8038;SDS011;4062;49.844;8.120;2023-05-07T07:14:00;7.60;;;0.30;;
8038;SDS011;4062;49.844;8.120;2023-05-07T07:16:04;0.40;;;0.30;;
8038;SDS011;4062;49.844;8.120;2023-05-07T07:18:08;4.00;;;0.40;;
8038;SDS011;4062;49.844;8.120;2023-05-07T07:20:11;2.40;;;0.60;;
8038;SDS011;4062;49.844;8.120;2023-05-07T07:22:14;0.83;;;0.60;;
8038;SDS011;4062;49.844;8.120;2023-05-07T07:24:17;1.23;;;0.40;;
8038;SDS011;4062;49.844;8.120;2023-05-07T07:26:24;0.40;;;0.30;;
8038;SDS011;4062;49.844;8.120;2023-05-07T07:28:26;0.40;;;0.30;;
8038;SDS011;4062;49.844;8.120;2023-05-07T07:30:28;2.00;;;0.40;;
8038;SDS011;4062;49.844;8.120;2023-05-07T07:32:32;2.33;;;0.40;;
8038;SDS011;4062;49.844;8.120;2023-05-07T07:34:36;0.50;;;0.40;;
8038;SDS011;4062;49.844;8.120;2023-05-07T07:36:38;0.50;;;0.30;;
8038;SDS011;4062;49.844;8.120;2023-05-07T07:38:43;1.30;;;0.40;;
8038;SDS011;4062;49.844;8.120;2023-05-07T07:40:44;3.03;;;0.30;;
8038;SDS011;4062;49.844;8.120;2023-05-07T07:42:47;0.50;;;0.30;;
8038;SDS011;4062;49.844;8.120;2023-05-07T07:44:49;0.50;;;0.30;;
8038;SDS011;4062;49.844;8.120;2023-05-07T07:46:54;0.50;;;0.33;;
8038;SDS011;4062;49.844;8.120;2023-05-07T07:48:57;0.50;;;0.30;;
8038;SDS011;4062;49.844;8.120;2023-05-07T07:51:09;0.50;;;0.40;;
8038;SDS011;4062;49.844;8.120;2023-05-07T07:53:11;0.50;;;0.30;;
8038;SDS011;4062;49.844;8.120;2023-05-07T07:55:13;0.60;;;0.30;;
8038;SDS011;4062;49.844;8.120;2023-05-07T07:57:18;0.43;;;0.30;;
8038;SDS011;4062;49.844;8.120;2023-05-07T07:59:23;0.50;;;0.30;;
8038;SDS011;4062;49.844;8.120;2023-05-07T08:01:29;0.60;;;0.30;;
8038;SDS011;4062;49.844;8.120;2023-05-07T08:03:34;0.47;;;0.33;;
8038;SDS011;4062;49.844;8.120;2023-05-07T08:05:49;0.60;;;0.40;;
8038;SDS011;4062;49.844;8.120;2023-05-07T08:07:51;0.40;;;0.30;;
8038;SDS011;4062;49.844;8.120;2023-05-07T08:10:26;0.60;;;0.40;;
8038;SDS011;4062;49.844;8.120;2023-05-07T08:12:38;0.50;;;0.30;;
8038;SDS011;4062;49.844;8.120;2023-05-07T08:15:00;0.40;;;0.30;;
8038;SDS011;4062;49.844;8.120;2023-05-07T08:17:10;0.50;;;0.50;;
8038;SDS011;4062;49.844;8.120;2023-05-07T08:19:16;3.80;;;0.30;;
8038;SDS011;4062;49.844;8.120;2023-05-07T08:21:21;0.50;;;0.30;;
8038;SDS011;4062;49.844;8.120;2023-05-07T08:23:23;1.43;;;0.50;;
8038;SDS011;4062;49.844;8.120;2023-05-07T08:25:25;0.40;;;0.30;;
8038;SDS011;4062;49.844;8.120;2023-05-07T08:27:37;0.50;;;0.40;;
8038;SDS011;4062;49.844;8.120;2023-05-07T08:29:41;0.40;;;0.30;;
8038;SDS011;4062;49.844;8.120;2023-05-07T08:31:45;0.50;;;0.40;;
8038;SDS011;4062;49.844;8.120;2023-05-07T08:33:47;0.50;;;0.30;;
8038;SDS011;4062;49.844;8.120;2023-05-07T08:35:50;0.40;;;0.30;;
8038;SDS011;4062;49.844;8.120;2023-05-07T08:38:02;0.50;;;0.30;;
8038;SDS011;4062;49.844;8.120;2023-05-07T08:40:12;0.50;;;0.40;;
8038;SDS011;4062;49.844;8.120;2023-05-07T08:42:20;0.40;;;0.30;;
8038;SDS011;4062;49.844;8.120;2023-05-07T08:44:28;0.40;;;0.33;;
8038;SDS011;4062;49.844;8.120;2023-05-07T08:46:56;0.50;;;0.40;;
8038;SDS011;4062;49.844;8.120;2023-05-07T08:49:24;0.50;;;0.50;;
8038;SDS011;4062;49.844;8.120;2023-05-07T08:51:32;0.47;;;0.30;;
8038;SDS011;4062;49.844;8.120;2023-05-07T08:53:44;0.40;;;0.30;;
8038;SDS011;4062;49.844;8.120;2023-05-07T08:56:11;0.40;;;0.30;;
8038;SDS011;4062;49.844;8.120;2023-05-07T08:58:17;0.50;;;0.30;;
8038;SDS011;4062;49.844;8.120;2023-05-07T09:00:18;0.60;;;0.43;;
8038;SDS011;4062;49.844;8.120;2023-05-07T09:02:29;0.50;;;0.30;;
8038;SDS011;4062;49.844;8.120;2023-05-07T09:04:42;0.50;;;0.30;;
8038;SDS011;4062;49.844;8.120;2023-05-07T09:07:04;0.40;;;0.30;;
8038;SDS011;4062;49.844;8.120;2023-05-07T09:09:09;0.50;;;0.30;;
8038;SDS011;4062;49.844;8.120;2023-05-07T09:11:14;0.40;;;0.30;;
8038;SDS011;4062;49.844;8.120;2023-05-07T09:13:16;0.40;;;0.23;;
8038;SDS011;4062;49.844;8.120;2023-05-07T09:15:23;0.80;;;0.40;;
8038;SDS011;4062;49.844;8.120;2023-05-07T09:17:30;0.40;;;0.30;;
8038;SDS011;4062;49.844;8.120;2023-05-07T09:22:31;0.40;;;0.30;;
8038;SDS011;4062;49.844;8.120;2023-05-07T09:24:47;0.40;;;0.30;;
8038;SDS011;4062;49.844;8.120;2023-05-07T09:26:53;0.53;;;0.30;;
8038;SDS011;4062;49.844;8.120;2023-05-07T09:29:07;0.40;;;0.30;;
8038;SDS011;4062;49.844;8.120;2023-05-07T09:31:18;0.50;;;0.30;;
8038;SDS011;4062;49.844;8.120;2023-05-07T09:33:36;0.50;;;0.30;;
8038;SDS011;4062;49.844;8.120;2023-05-07T09:35:58;1.73;;;0.30;;
8038;SDS011;4062;49.844;8.120;2023-05-07T09:38:18;0.40;;;0.30;;
8038;SDS011;4062;49.844;8.120;2023-05-07T09:40:28;0.50;;;0.40;;
8038;SDS011;4062;49.844;8.120;2023-05-07T09:42:39;0.50;;;0.30;;
8038;SDS011;4062;49.844;8.120;2023-05-07T09:44:40;0.40;;;0.30;;
8038;SDS011;4062;49.844;8.120;2023-05-07T09:46:52;0.60;;;0.40;;
8038;SDS011;4062;49.844;8.120;2023-05-07T09:49:08;0.40;;;0.33;;
8038;SDS011;4062;49.844;8.120;2023-05-07T09:51:51;0.50;;;0.30;;
8038;SDS011;4062;49.844;8.120;2023-05-07T09:53:56;0.50;;;0.40;;
8038;SDS011;4062;49.844;8.120;2023-05-07T09:56:09;2.70;;;0.40;;
8038;SDS011;4062;49.844;8.120;2023-05-07T09:58:12;0.50;;;0.40;;
8038;SDS011;4062;49.844;8.120;2023-05-07T10:00:21;0.40;;;0.30;;
8038;SDS011;4062;49.844;8.120;2023-05-07T10:02:52;0.50;;;0.40;;
8038;SDS011;4062;49.844;8.120;2023-05-07T10:05:15;0.50;;;0.30;;
8038;SDS011;4062;49.844;8.120;2023-05-07T10:07:22;0.40;;;0.30;;
8038;SDS011;4062;49.844;8.120;2023-05-07T10:09:32;0.40;;;0.30;;
8038;SDS011;4062;49.844;8.120;2023-05-07T10:11:38;0.50;;;0.33;;
8038;SDS011;4062;49.844;8.120;2023-05-07T10:13:56;0.50;;;0.33;;
8038;SDS011;4062;49.844;8.120;2023-05-07T10:16:21;0.40;;;0.30;;
8038;SDS011;4062;49.844;8.120;2023-05-07T10:18:25;0.40;;;0.30;;
8038;SDS011;4062;49.844;8.120;2023-05-07T10:20:35;0.50;;;0.30;;
8038;SDS011;4062;49.844;8.120;2023-05-07T10:22:49;0.43;;;0.30;;
8038;SDS011;4062;49.844;8.120;2023-05-07T10:25:30;0.50;;;0.30;;
8038;SDS011;4062;49.844;8.120;2023-05-07T10:27:43;0.60;;;0.40;;
8038;SDS011;4062;49.844;8.120;2023-05-07T10:30:15;0.40;;;0.30;;
8038;SDS011;4062;49.844;8.120;2023-05-07T10:34:30;0.43;;;0.30;;
8038;SDS011;4062;49.844;8.120;2023-05-07T10:36:46;0.50;;;0.30;;
8038;SDS011;4062;49.844;8.120;2023-05-07T10:38:58;0.40;;;0.30;;
8038;SDS011;4062;49.844;8.120;2023-05-07T10:41:03;0.60;;;0.57;;
8038;SDS011;4062;49.844;8.120;2023-05-07T10:43:15;0.40;;;0.27;;
8038;SDS011;4062;49.844;8.120;2023-05-07T10:45:23;0.40;;;0.30;;
8038;SDS011;4062;49.844;8.120;2023-05-07T10:47:29;0.50;;;0.30;;
8038;SDS011;4062;49.844;8.120;2023-05-07T10:49:36;0.50;;;0.30;;
8038;SDS011;4062;49.844;8.120;2023-05-07T10:52:10;0.40;;;0.30;;
8038;SDS011;4062;49.844;8.120;2023-05-07T10:54:29;0.40;;;0.30;;
8038;SDS011;4062;49.844;8.120;2023-05-07T10:56:44;0.50;;;0.50;;
8038;SDS011;4062;49.844;8.120;2023-05-07T10:58:52;0.43;;;0.30;;
8038;SDS011;4062;49.844;8.120;2023-05-07T11:01:05;0.40;;;0.30;;
8038;SDS011;4062;49.844;8.120;2023-05-07T11:03:12;0.40;;;0.30;;
8038;SDS011;4062;49.844;8.120;2023-05-07T11:05:23;0.70;;;0.47;;
8038;SDS011;4062;49.844;8.120;2023-05-07T11:07:37;0.40;;;0.30;;
8038;SDS011;4062;49.844;8.120;2023-05-07T11:10:00;0.47;;;0.30;;
8038;SDS011;4062;49.844;8.120;2023-05-07T11:12:14;0.40;;;0.30;;
8038;SDS011;4062;49.844;8.120;2023-05-07T11:16:54;0.73;;;0.30;;
8038;SDS011;4062;49.844;8.120;2023-05-07T11:19:05;0.40;;;0.30;;
8038;SDS011;4062;49.844;8.120;2023-05-07T11:21:12;0.60;;;0.30;;
8038;SDS011;4062;49.844;8.120;2023-05-07T11:26:05;0.50;;;0.30;;
8038;SDS011;4062;49.844;8.120;2023-05-07T11:28:09;0.50;;;0.37;;
8038;SDS011;4062;49.844;8.120;2023-05-07T11:30:22;0.50;;;0.33;;
8038;SDS011;4062;49.844;8.120;2023-05-07T11:32:31;0.43;;;0.37;;
8038;SDS011;4062;49.844;8.120;2023-05-07T11:37:48;0.50;;;0.40;;
8038;SDS011;4062;49.844;8.120;2023-05-07T11:40:06;0.40;;;0.30;;
8038;SDS011;4062;49.844;8.120;2023-05-07T11:42:31;0.50;;;0.30;;
8038;SDS011;4062;49.844;8.120;2023-05-07T11:44:41;0.50;;;0.30;;
8038;SDS011;4062;49.844;8.120;2023-05-07T11:46:46;0.47;;;0.30;;
8038;SDS011;4062;49.844;8.120;2023-05-07T11:48:53;0.50;;;0.33;;
8038;SDS011;4062;49.844;8.120;2023-05-07T11:53:19;0.50;;;0.40;;
8038;SDS011;4062;49.844;8.120;2023-05-07T11:55:53;0.47;;;0.37;;
8038;SDS011;4062;49.844;8.120;2023-05-07T11:58:24;0.60;;;0.60;;
8038;SDS011;4062;49.844;8.120;2023-05-07T12:00:28;6.13;;;1.90;;
8038;SDS011;4062;49.844;8.120;2023-05-07T12:02:50;1.87;;;0.83;;
8038;SDS011;4062;49.844;8.120;2023-05-07T12:04:52;2.17;;;0.73;;
8038;SDS011;4062;49.844;8.120;2023-05-07T12:06:54;1.73;;;0.80;;
8038;SDS011;4062;49.844;8.120;2023-05-07T12:08:58;2.07;;;1.30;;
8038;SDS011;4062;49.844;8.120;2023-05-07T12:11:00;1.80;;;0.97;;
8038;SDS011;4062;49.844;8.120;2023-05-07T12:13:02;1.50;;;1.40;;
8038;SDS011;4062;49.844;8.120;2023-05-07T12:15:17;2.70;;;1.10;;
8038;SDS011;4062;49.844;8.120;2023-05-07T12:17:22;1.23;;;1.13;;
8038;SDS011;4062;49.844;8.120;2023-05-07T12:19:26;1.27;;;1.17;;
8038;SDS011;4062;49.844;8.120;2023-05-07T12:21:32;0.90;;;0.90;;
8038;SDS011;4062;49.844;8.120;2023-05-07T12:23:42;3.43;;;1.40;;
8038;SDS011;4062;49.844;8.120;2023-05-07T12:25:44;1.50;;;1.50;;
8038;SDS011;4062;49.844;8.120;2023-05-07T12:27:52;1.33;;;1.23;;
8038;SDS011;4062;49.844;8.120;2023-05-07T12:29:53;1.40;;;1.30;;
8038;SDS011;4062;49.844;8.120;2023-05-07T12:32:00;1.50;;;1.50;;
8038;SDS011;4062;49.844;8.120;2023-05-07T12:34:02;1.30;;;1.30;;
8038;SDS011;4062;49.844;8.120;2023-05-07T12:36:05;1.23;;;0.90;;
8038;SDS011;4062;49.844;8.120;2023-05-07T12:38:08;1.00;;;1.00;;
8038;SDS011;4062;49.844;8.120;2023-05-07T12:40:19;1.40;;;1.30;;
8038;SDS011;4062;49.844;8.120;2023-05-07T12:42:23;1.30;;;1.10;;
8038;SDS011;4062;49.844;8.120;2023-05-07T12:44:30;1.17;;;1.00;;
8038;SDS011;4062;49.844;8.120;2023-05-07T12:49:02;0.80;;;0.80;;
8038;SDS011;4062;49.844;8.120;2023-05-07T12:51:06;2.77;;;1.00;;
8038;SDS011;4062;49.844;8.120;2023-05-07T12:53:11;1.57;;;0.80;;
8038;SDS011;4062;49.844;8.120;2023-05-07T12:55:13;2.57;;;1.03;;
8038;SDS011;4062;49.844;8.120;2023-05-07T12:57:15;0.90;;;0.90;;
8038;SDS011;4062;49.844;8.120;2023-05-07T12:59:30;1.10;;;0.70;;
8038;SDS011;4062;49.844;8.120;2023-05-07T13:01:33;1.00;;;1.00;;
8038;SDS011;4062;49.844;8.120;2023-05-07T13:03:35;0.73;;;0.73;;
8038;SDS011;4062;49.844;8.120;2023-05-07T13:05:38;1.33;;;1.23;;
8038;SDS011;4062;49.844;8.120;2023-05-07T13:07:40;0.80;;;0.80;;
8038;SDS011;4062;49.844;8.120;2023-05-07T13:09:52;0.57;;;0.50;;
8038;SDS011;4062;49.844;8.120;2023-05-07T13:11:53;1.20;;;1.10;;
8038;SDS011;4062;49.844;8.120;2023-05-07T13:13:55;0.77;;;0.77;;
8038;SDS011;4062;49.844;8.120;2023-05-07T13:15:56;1.30;;;1.30;;
8038;SDS011;4062;49.844;8.120;2023-05-07T13:17:58;1.83;;;1.20;;
8038;SDS011;4062;49.844;8.120;2023-05-07T13:19:59;1.77;;;1.23;;